Moapa, Nevada
Current Conditions -  °F | °C
As of 12:58 AM on Sunday 26 Oct 2014 (Local Time) from KLSV Reporting Station
Clear Clear  
Wind Chill: 75°   Ceiling: Unl
Heat Index: 75°   Visibility: 10mi
Dew Point: 41°   Wind: 12mph
Humidity: 29%   Direction: 170°S
Pressure: 29.92"   Gusts: 24mph
Location:  36.67°N, 114.62°W
Report Text: KLSV 260758Z AUTO 17010G21KT 10SM CLR 24/05 A2992 RMK AO2 SLP110 T02390048 403070142 $
Loading
Personal Weather Stations






























Interactive Weather Map
Tropical Storm Tracking
New forecast layout! Learn more

10-Day Weather Forecast

Advertisements
Track Severe Weather on mobile